createdAt,value
2018-09-30T00:00:08.667Z,7.9
2018-09-30T00:01:10.247Z,7.9
2018-09-30T00:02:11.686Z,7.9
2018-09-30T00:03:13.265Z,7.9
2018-09-30T00:04:14.659Z,7.9
2018-09-30T00:05:16.228Z,7.9
2018-09-30T00:06:17.788Z,7.9
2018-09-30T00:07:19.178Z,7.9
2018-09-30T00:08:20.748Z,7.9
2018-09-30T00:09:22.326Z,7.9
2018-09-30T00:10:24.099Z,7.9
2018-09-30T00:11:25.477Z,7.9
2018-09-30T00:12:26.880Z,7.9
2018-09-30T00:13:28.270Z,7.9
2018-09-30T00:14:29.673Z,7.9
2018-09-30T00:15:31.048Z,7.9
2018-09-30T00:16:32.605Z,7.9
2018-09-30T00:17:34.160Z,7.9
2018-09-30T00:18:35.543Z,7.9
2018-09-30T00:19:37.728Z,7.9
2018-09-30T00:20:38.988Z,7.9
2018-09-30T00:21:40.553Z,7.9
2018-09-30T00:22:42.128Z,7.9
2018-09-30T00:23:43.679Z,7.9
2018-09-30T00:24:45.258Z,7.9
2018-09-30T00:25:46.805Z,7.9
2018-09-30T00:26:48.215Z,7.9
2018-09-30T00:27:49.619Z,7.9
2018-09-30T00:28:51.033Z,7.9
2018-09-30T00:29:52.591Z,7.9
2018-09-30T00:30:54.139Z,7.9
2018-09-30T00:31:55.707Z,7.9
2018-09-30T00:32:57.099Z,7.3
2018-09-30T00:33:58.665Z,7.4
2018-09-30T00:35:00.050Z,7.7
2018-09-30T00:36:01.432Z,7.8
2018-09-30T00:37:02.825Z,7.9
2018-09-30T00:38:04.389Z,7.9
2018-09-30T00:39:06.587Z,7.9
2018-09-30T00:40:08.160Z,7.9
2018-09-30T00:41:09.725Z,7.9
2018-09-30T00:42:11.315Z,7.9
2018-09-30T00:43:12.899Z,7.9
2018-09-30T00:44:14.486Z,7.9
2018-09-30T00:45:15.878Z,7.9
2018-09-30T00:46:17.441Z,7.9
2018-09-30T00:47:18.667Z,7.9
2018-09-30T00:48:20.241Z,7.9
2018-09-30T00:49:21.795Z,7.9
2018-09-30T00:50:23.352Z,7.9
2018-09-30T00:51:24.947Z,7.9
2018-09-30T00:52:26.330Z,7.9
2018-09-30T00:53:27.714Z,7.9
2018-09-30T00:54:29.290Z,7.9
2018-09-30T00:55:30.669Z,7.9
2018-09-30T00:56:32.057Z,7.9
2018-09-30T00:57:33.629Z,7.9
2018-09-30T00:58:35.206Z,7.9
2018-09-30T00:59:36.597Z,7.8
2018-09-30T01:00:38.175Z,7.8
2018-09-30T01:01:39.748Z,7.8
2018-09-30T01:02:41.298Z,7.8
2018-09-30T01:03:42.675Z,7.8
2018-09-30T01:04:44.097Z,7.8
2018-09-30T01:05:45.659Z,7.8
2018-09-30T01:06:47.217Z,7.7
2018-09-30T01:07:48.788Z,7.7
2018-09-30T01:08:50.208Z,7.7
2018-09-30T01:09:51.767Z,7.6
2018-09-30T01:10:53.182Z,7.5
2018-09-30T01:11:54.585Z,7.5
2018-09-30T01:12:56.147Z,7.4
2018-09-30T01:13:57.397Z,7.3
2018-09-30T01:14:58.956Z,7.2
2018-09-30T01:16:00.518Z,7.2
2018-09-30T01:17:02.070Z,7.2
2018-09-30T01:18:03.643Z,7.2
2018-09-30T01:19:05.220Z,7.2
2018-09-30T01:20:06.792Z,7.2
2018-09-30T01:21:08.349Z,7.2
2018-09-30T01:22:09.748Z,7.2
2018-09-30T01:23:11.307Z,7.2
2018-09-30T01:24:12.928Z,7.2
2018-09-30T01:25:14.308Z,7.2
2018-09-30T01:26:15.851Z,7.2
2018-09-30T01:27:17.467Z,7.1
2018-09-30T01:28:19.064Z,7.2
2018-09-30T01:29:20.473Z,7.2
2018-09-30T01:30:22.026Z,7.1
2018-09-30T01:31:23.440Z,7.1
2018-09-30T01:32:24.833Z,7.1
2018-09-30T01:33:26.415Z,7.1
2018-09-30T01:34:28.183Z,7.1
2018-09-30T01:35:29.565Z,7.1
2018-09-30T01:36:31.114Z,7.1
2018-09-30T01:37:32.177Z,7.1
2018-09-30T01:38:33.764Z,7.1
2018-09-30T01:39:35.335Z,7.1
2018-09-30T01:40:36.897Z,7.1
2018-09-30T01:41:38.469Z,7.1
2018-09-30T01:42:40.025Z,7.2
2018-09-30T01:43:41.420Z,7.1
2018-09-30T01:44:42.999Z,7.2
2018-09-30T01:45:44.537Z,7.1
2018-09-30T01:46:46.104Z,7.1
2018-09-30T01:47:47.672Z,7.1
2018-09-30T01:48:49.231Z,7.2
2018-09-30T01:49:50.790Z,7.2
2018-09-30T01:50:52.181Z,7.2
2018-09-30T01:51:53.734Z,7.2
2018-09-30T01:52:55.117Z,7.2
2018-09-30T01:53:56.516Z,7.2
2018-09-30T01:54:57.932Z,7.2
2018-09-30T01:55:59.480Z,7.2
2018-09-30T01:57:00.915Z,7.2
2018-09-30T01:58:02.455Z,7.2
2018-09-30T01:59:04.030Z,7.2
2018-09-30T02:00:05.578Z,7.2
2018-09-30T02:01:06.959Z,7.2
2018-09-30T02:02:08.345Z,7.2
2018-09-30T02:03:09.928Z,7.2
2018-09-30T02:04:11.485Z,7.2
2018-09-30T02:05:13.059Z,7.2
2018-09-30T02:06:14.451Z,7.2
2018-09-30T02:07:16.015Z,7.2
2018-09-30T02:08:17.423Z,7.2
2018-09-30T02:09:18.496Z,7.2
2018-09-30T02:10:20.065Z,7.3
2018-09-30T02:11:21.612Z,7.3
2018-09-30T02:12:23.165Z,7.3
2018-09-30T02:13:24.408Z,7.4
2018-09-30T02:14:25.811Z,7.4
2018-09-30T02:15:27.212Z,7.4
2018-09-30T02:16:28.633Z,7.5
2018-09-30T02:17:30.194Z,7.5
2018-09-30T02:18:31.749Z,7.6
2018-09-30T02:19:33.309Z,7.6
2018-09-30T02:20:34.876Z,7.7
2018-09-30T02:21:36.424Z,7.7
2018-09-30T02:22:37.981Z,7.8
2018-09-30T02:23:39.531Z,7.8
2018-09-30T02:24:41.105Z,7.9
2018-09-30T02:25:42.660Z,7.9
2018-09-30T02:26:44.070Z,7.9
2018-09-30T02:27:45.629Z,7.9
2018-09-30T02:28:47.198Z,7.9
2018-09-30T02:29:48.804Z,7.9
2018-09-30T02:30:50.189Z,7.9
2018-09-30T02:31:51.613Z,7.9
2018-09-30T02:32:52.848Z,7.9
2018-09-30T02:33:54.420Z,7.9
2018-09-30T02:34:55.972Z,7.9
2018-09-30T02:35:57.539Z,7.9
2018-09-30T02:36:58.953Z,7.9
2018-09-30T02:38:00.526Z,7.9
2018-09-30T02:39:02.095Z,7.9
2018-09-30T02:40:03.667Z,7.9
2018-09-30T02:41:05.238Z,7.9
2018-09-30T02:42:06.652Z,7.9
2018-09-30T02:43:08.207Z,7.9
2018-09-30T02:44:09.454Z,7.9
2018-09-30T02:45:11.016Z,7.9
2018-09-30T02:46:12.410Z,7.9
2018-09-30T02:47:13.984Z,7.9
2018-09-30T02:48:15.554Z,7.9
2018-09-30T02:49:17.119Z,7.9
2018-09-30T02:50:18.677Z,7.9
2018-09-30T02:51:20.084Z,7.3
2018-09-30T02:52:21.706Z,7.4
2018-09-30T02:53:23.290Z,7.5
2018-09-30T02:54:24.874Z,7.6
2018-09-30T02:55:26.280Z,7.7
2018-09-30T02:56:27.681Z,7.8
2018-09-30T02:57:29.535Z,7.8
2018-09-30T02:58:31.117Z,7.9
2018-09-30T02:59:32.697Z,7.9
2018-09-30T03:00:34.267Z,7.8
2018-09-30T03:01:35.808Z,7.8
2018-09-30T03:02:37.382Z,7.8
2018-09-30T03:03:38.941Z,7.8
2018-09-30T03:04:40.518Z,7.8
2018-09-30T03:05:42.095Z,7.9
2018-09-30T03:06:43.654Z,7.8
2018-09-30T03:07:45.056Z,7.8
2018-09-30T03:08:46.626Z,7.8
2018-09-30T03:09:48.197Z,7.8
2018-09-30T03:10:49.781Z,7.8
2018-09-30T03:11:51.214Z,7.8
2018-09-30T03:12:52.803Z,7.8
2018-09-30T03:13:54.363Z,7.8
2018-09-30T03:14:55.755Z,7.8
2018-09-30T03:15:57.152Z,7.8
2018-09-30T03:16:58.733Z,7.8
2018-09-30T03:17:59.979Z,7.8
2018-09-30T03:19:01.411Z,7.8
2018-09-30T03:20:02.805Z,7.8
2018-09-30T03:21:04.377Z,7.8
2018-09-30T03:22:05.954Z,7.7
2018-09-30T03:23:07.336Z,7.7
2018-09-30T03:24:08.892Z,7.6
2018-09-30T03:25:10.277Z,7.4
2018-09-30T03:26:11.834Z,7.3
2018-09-30T03:27:13.395Z,7.2
2018-09-30T03:28:14.634Z,7.2
2018-09-30T03:29:16.200Z,7.2
2018-09-30T03:30:17.631Z,7.2
2018-09-30T03:31:19.025Z,7.2
2018-09-30T03:32:20.586Z,7.2
2018-09-30T03:33:22.168Z,7.2
2018-09-30T03:34:23.786Z,7.2
2018-09-30T03:35:25.338Z,7.2
2018-09-30T03:36:26.771Z,7.2
2018-09-30T03:37:28.398Z,7.2
2018-09-30T03:38:29.806Z,7.2
2018-09-30T03:39:31.772Z,7.2
2018-09-30T03:40:48.088Z,7.2
2018-09-30T03:41:49.664Z,7.2
2018-09-30T03:42:51.241Z,7.2
2018-09-30T03:43:52.831Z,7.2
2018-09-30T03:44:54.233Z,7.2
2018-09-30T03:45:55.800Z,7.2
2018-09-30T03:46:57.357Z,7.2
2018-09-30T03:47:58.757Z,7.2
2018-09-30T03:49:00.327Z,7.2
2018-09-30T03:50:01.916Z,7.2
2018-09-30T03:51:03.392Z,7.2
2018-09-30T03:52:04.817Z,7.2
2018-09-30T03:53:06.205Z,7.2
2018-09-30T03:54:07.767Z,7.2
2018-09-30T03:55:09.376Z,7.2
2018-09-30T03:56:10.964Z,7.2
2018-09-30T03:57:12.549Z,7.2
2018-09-30T03:58:13.946Z,7.2
2018-09-30T03:59:15.554Z,7.2
2018-09-30T04:00:17.153Z,7.2
2018-09-30T04:01:18.750Z,7.2
2018-09-30T04:02:20.178Z,7.2
2018-09-30T04:03:21.609Z,7.2
2018-09-30T04:04:22.847Z,7.2
2018-09-30T04:05:24.416Z,7.2
2018-09-30T04:06:25.978Z,7.2
2018-09-30T04:07:27.557Z,7.2
2018-09-30T04:08:29.139Z,7.2
2018-09-30T04:09:31.028Z,7.3
2018-09-30T04:10:32.615Z,7.3
2018-09-30T04:11:34.179Z,7.4
2018-09-30T04:12:35.564Z,7.5
2018-09-30T04:13:37.133Z,7.6
2018-09-30T04:14:38.510Z,7.8
2018-09-30T04:15:40.090Z,7.9
2018-09-30T04:16:41.481Z,7.9
2018-09-30T04:17:43.018Z,7.9
2018-09-30T04:18:44.423Z,7.9
2018-09-30T04:19:45.985Z,7.9
2018-09-30T04:20:47.551Z,7.9
2018-09-30T04:21:49.142Z,7.9
2018-09-30T04:22:50.712Z,7.9
2018-09-30T04:23:52.266Z,7.9
2018-09-30T04:24:53.849Z,7.9
2018-09-30T04:25:55.407Z,7.9
2018-09-30T04:26:56.832Z,7.9
2018-09-30T04:27:58.241Z,7.9
2018-09-30T04:28:59.484Z,7.9
2018-09-30T04:30:01.049Z,7.9
2018-09-30T04:31:02.598Z,7.6
2018-09-30T04:32:04.005Z,7.8
2018-09-30T04:33:05.551Z,7.9
2018-09-30T04:34:07.136Z,7.9
2018-09-30T04:35:08.528Z,7.8
2018-09-30T04:36:09.937Z,7.9
2018-09-30T04:37:11.486Z,7.3
2018-09-30T04:38:13.060Z,7.4
2018-09-30T04:39:14.647Z,7.5
2018-09-30T04:40:16.212Z,7.6
2018-09-30T04:41:17.859Z,7.7
2018-09-30T04:42:19.272Z,7.8
2018-09-30T04:43:20.840Z,7.8
2018-09-30T04:44:22.244Z,7.9
2018-09-30T04:45:23.810Z,7.9
2018-09-30T04:46:25.400Z,7.9
2018-09-30T04:47:26.629Z,7.9
2018-09-30T04:48:28.008Z,7.9
2018-09-30T04:49:29.412Z,7.9
2018-09-30T04:50:30.976Z,7.9
2018-09-30T04:51:32.542Z,7.9
2018-09-30T04:52:33.942Z,7.9
2018-09-30T04:53:35.486Z,7.9
2018-09-30T04:54:37.085Z,7.9
2018-09-30T04:55:38.640Z,7.9
2018-09-30T04:56:40.224Z,7.9
2018-09-30T04:57:41.604Z,7.9
2018-09-30T04:58:43.163Z,7.9
2018-09-30T04:59:44.738Z,7.9
2018-09-30T05:00:46.516Z,7.9
2018-09-30T05:01:48.098Z,7.9
2018-09-30T05:02:49.495Z,7.9
2018-09-30T05:03:51.063Z,7.9
2018-09-30T05:04:52.630Z,7.9
2018-09-30T05:05:55.034Z,7.9
2018-09-30T05:06:56.661Z,7.9
2018-09-30T05:07:58.232Z,7.8
2018-09-30T05:08:59.794Z,7.8
2018-09-30T05:10:01.374Z,7.8
2018-09-30T05:11:02.937Z,7.8
2018-09-30T05:12:04.166Z,7.8
2018-09-30T05:13:05.735Z,7.8
2018-09-30T05:14:06.961Z,7.2
2018-09-30T05:15:08.504Z,7.3
2018-09-30T05:16:10.917Z,7.3
2018-09-30T05:17:12.557Z,7.4
2018-09-30T05:18:14.118Z,7.4
2018-09-30T05:19:15.503Z,7.3
2018-09-30T05:20:17.063Z,7.3
2018-09-30T05:21:18.457Z,7.2
2018-09-30T05:22:20.006Z,7.2
2018-09-30T05:23:21.595Z,7.2
2018-09-30T05:24:22.984Z,7.2
2018-09-30T05:25:24.561Z,7.2
2018-09-30T05:26:25.966Z,7.2
2018-09-30T05:27:27.536Z,7.1
2018-09-30T05:28:29.102Z,7.1
2018-09-30T05:29:30.658Z,7.2
2018-09-30T05:30:32.045Z,7.2
2018-09-30T05:31:33.438Z,7.2
2018-09-30T05:32:34.822Z,7.2
2018-09-30T05:33:36.375Z,7.2
2018-09-30T05:34:37.922Z,7.2
2018-09-30T05:35:39.474Z,7.2
2018-09-30T05:36:41.042Z,7.2
2018-09-30T05:37:42.097Z,7.2
2018-09-30T05:38:43.632Z,7.2
2018-09-30T05:39:44.872Z,7.2
2018-09-30T05:40:46.436Z,7.2
2018-09-30T05:41:47.825Z,7.2
2018-09-30T05:42:49.219Z,7.2
2018-09-30T05:43:50.773Z,7.2
2018-09-30T05:44:52.366Z,7.2
2018-09-30T05:45:53.928Z,7.2
2018-09-30T05:46:55.315Z,7.2
2018-09-30T05:47:57.190Z,7.2
2018-09-30T05:48:59.055Z,7.2
2018-09-30T05:50:00.461Z,7.2
2018-09-30T05:51:02.056Z,7.2
2018-09-30T05:52:03.625Z,7.2
2018-09-30T05:53:04.996Z,7.2
2018-09-30T05:54:06.544Z,7.2
2018-09-30T05:55:07.776Z,7.2
2018-09-30T05:56:09.339Z,7.3
2018-09-30T05:57:10.749Z,7.3
2018-09-30T05:58:12.322Z,7.3
2018-09-30T05:59:13.880Z,7.4
2018-09-30T06:00:15.439Z,7.4
2018-09-30T06:01:16.827Z,7.5
2018-09-30T06:02:18.403Z,7.5
2018-09-30T06:03:19.480Z,7.6
2018-09-30T06:04:21.060Z,7.7
2018-09-30T06:05:22.480Z,7.8
2018-09-30T06:06:24.089Z,7.8
2018-09-30T06:07:25.666Z,7.9
2018-09-30T06:08:27.239Z,7.9
2018-09-30T06:09:28.978Z,7.9
2018-09-30T06:10:30.385Z,7.6
2018-09-30T06:11:31.935Z,7.9
2018-09-30T06:12:33.654Z,7.9
2018-09-30T06:13:35.095Z,7.9
2018-09-30T06:14:36.655Z,7.8
2018-09-30T06:15:38.218Z,7.7
2018-09-30T06:16:39.627Z,7.9
2018-09-30T06:17:41.174Z,7.9
2018-09-30T06:18:42.569Z,7.9
2018-09-30T06:19:43.987Z,7.8
2018-09-30T06:20:45.532Z,7.9
2018-09-30T06:21:47.093Z,7.9
2018-09-30T06:22:48.655Z,7.9
2018-09-30T06:23:50.213Z,7.9
2018-09-30T06:24:51.444Z,7.9
2018-09-30T06:25:53.018Z,7.9
2018-09-30T06:26:54.414Z,7.9
2018-09-30T06:27:55.813Z,7.9
2018-09-30T06:28:57.378Z,7.9
2018-09-30T06:29:58.957Z,7.9
2018-09-30T06:31:00.360Z,7.9
2018-09-30T06:32:02.524Z,7.8
2018-09-30T06:33:03.944Z,7.8
2018-09-30T06:34:05.518Z,7.8
2018-09-30T06:35:07.067Z,7.8
2018-09-30T06:36:08.692Z,7.8
2018-09-30T06:37:10.252Z,7.7
2018-09-30T06:38:11.654Z,7.7
2018-09-30T06:39:13.254Z,7.6
2018-09-30T06:40:14.927Z,7.6
2018-09-30T06:41:16.350Z,7.5
2018-09-30T06:42:17.970Z,7.5
2018-09-30T06:43:19.426Z,7.5
2018-09-30T06:44:21.012Z,7.4
2018-09-30T06:45:23.092Z,7.4
2018-09-30T06:46:24.692Z,7.4
2018-09-30T06:47:26.190Z,7.4
2018-09-30T06:48:27.772Z,7.3
2018-09-30T06:49:29.166Z,7.3
2018-09-30T06:50:30.776Z,7.2
2018-09-30T06:51:32.199Z,7.2
2018-09-30T06:52:33.770Z,7.2
2018-09-30T06:53:35.330Z,7.2
2018-09-30T06:54:36.875Z,7.2
2018-09-30T06:55:37.795Z,7.2
2018-09-30T06:56:39.347Z,7.2
2018-09-30T06:57:40.937Z,7.2
2018-09-30T06:58:42.532Z,7.2
2018-09-30T06:59:44.086Z,7.2
2018-09-30T07:00:45.664Z,7.2
2018-09-30T07:01:47.243Z,7.2
2018-09-30T07:02:48.635Z,7.2
2018-09-30T07:03:50.217Z,7.2
2018-09-30T07:04:52.278Z,7.2
2018-09-30T07:05:53.889Z,7.2
2018-09-30T07:06:55.308Z,7.3
2018-09-30T07:07:56.704Z,7.3
2018-09-30T07:08:58.218Z,7.4
2018-09-30T07:09:59.697Z,7.4
2018-09-30T07:11:01.569Z,7.4
2018-09-30T07:12:03.154Z,7.5
2018-09-30T07:13:04.555Z,7.5
2018-09-30T07:14:06.173Z,7.4
2018-09-30T07:15:07.587Z,7.4
2018-09-30T07:16:08.992Z,7.3
2018-09-30T07:17:10.376Z,7.2
2018-09-30T07:18:11.944Z,7.2
2018-09-30T07:19:12.998Z,7.2
2018-09-30T07:20:14.247Z,7.2
2018-09-30T07:21:15.802Z,7.2
2018-09-30T07:22:17.002Z,7.1
2018-09-30T07:23:18.241Z,7.1
2018-09-30T07:24:19.825Z,7.1
2018-09-30T07:25:21.389Z,7.1
2018-09-30T07:26:22.788Z,7.2
2018-09-30T07:27:24.204Z,7.1
2018-09-30T07:28:25.790Z,7.1
2018-09-30T07:29:27.394Z,7.1
2018-09-30T07:30:28.796Z,7.1
2018-09-30T07:31:30.365Z,7.1
2018-09-30T07:32:31.930Z,7.1
2018-09-30T07:33:33.499Z,7.1
2018-09-30T07:34:43.122Z,7.2
2018-09-30T07:35:44.658Z,7.2
2018-09-30T07:36:46.269Z,7.2
2018-09-30T07:37:47.681Z,7.2
2018-09-30T07:38:49.078Z,7.2
2018-09-30T07:39:50.661Z,7.2
2018-09-30T07:40:53.027Z,7.2
2018-09-30T07:41:54.588Z,7.2
2018-09-30T07:42:56.167Z,7.2
2018-09-30T07:43:57.734Z,7.2
2018-09-30T07:44:59.293Z,7.2
2018-09-30T07:46:00.523Z,7.2
2018-09-30T07:47:01.941Z,7.2
2018-09-30T07:48:03.532Z,7.2
2018-09-30T07:49:05.106Z,7.2
2018-09-30T07:50:06.521Z,7.2
2018-09-30T07:51:08.079Z,7.2
2018-09-30T07:52:09.671Z,7.2
2018-09-30T07:53:11.246Z,7.2
2018-09-30T07:54:12.816Z,7.2
2018-09-30T07:55:14.034Z,7.2
2018-09-30T07:56:15.445Z,7.2
2018-09-30T07:57:16.679Z,7.2
2018-09-30T07:58:18.216Z,7.2
2018-09-30T07:59:19.851Z,7.2
2018-09-30T08:00:21.245Z,7.2
2018-09-30T08:01:22.792Z,7.2
2018-09-30T08:02:24.357Z,7.3
2018-09-30T08:03:25.945Z,7.3
2018-09-30T08:04:27.518Z,7.3
2018-09-30T08:05:28.913Z,7.4
2018-09-30T08:06:31.432Z,7.4
2018-09-30T08:07:32.745Z,7.5
2018-09-30T08:08:33.967Z,7.5
2018-09-30T08:09:35.536Z,7.6
2018-09-30T08:10:37.110Z,7.7
2018-09-30T08:11:38.521Z,7.7
2018-09-30T08:12:39.936Z,7.8
2018-09-30T08:13:41.504Z,7.9
2018-09-30T08:14:43.048Z,7.9
2018-09-30T08:15:44.617Z,7.9
2018-09-30T08:16:46.025Z,7.9
2018-09-30T08:17:47.600Z,7.9
2018-09-30T08:18:49.186Z,7.9
2018-09-30T08:19:50.580Z,7.9
2018-09-30T08:20:51.998Z,7.9
2018-09-30T08:21:53.564Z,7.9
2018-09-30T08:22:54.963Z,7.9
2018-09-30T08:23:56.934Z,7.9
2018-09-30T08:24:58.356Z,7.9
2018-09-30T08:25:59.955Z,7.9
2018-09-30T08:27:01.358Z,7.9
2018-09-30T08:28:02.932Z,7.9
2018-09-30T08:29:04.492Z,7.9
2018-09-30T08:30:06.060Z,7.9
2018-09-30T08:31:07.440Z,7.9
2018-09-30T08:32:08.993Z,7.9
2018-09-30T08:33:10.418Z,7.9
2018-09-30T08:34:11.822Z,7.9
2018-09-30T08:35:13.397Z,7.9
2018-09-30T08:36:14.803Z,7.9
2018-09-30T08:37:16.375Z,7.9
2018-09-30T08:38:17.927Z,7.9
2018-09-30T08:39:19.335Z,7.9
2018-09-30T08:40:20.907Z,7.9
2018-09-30T08:41:22.457Z,7.9
2018-09-30T08:42:23.868Z,7.9
2018-09-30T08:43:25.108Z,7.9
2018-09-30T08:44:26.688Z,7.9
2018-09-30T08:45:28.249Z,7.9
2018-09-30T08:46:29.844Z,7.9
2018-09-30T08:47:31.521Z,7.9
2018-09-30T08:48:32.953Z,7.9
2018-09-30T08:49:34.363Z,7.9
2018-09-30T08:50:35.793Z,7.9
2018-09-30T08:51:37.520Z,7.9
2018-09-30T08:52:38.948Z,7.9
2018-09-30T08:53:40.670Z,7.9
2018-09-30T08:54:42.229Z,7.9
2018-09-30T08:55:43.865Z,7.9
2018-09-30T08:56:44.968Z,7.9
2018-09-30T08:57:46.547Z,7.9
2018-09-30T08:58:48.122Z,7.9
2018-09-30T08:59:49.375Z,7.9
2018-09-30T09:00:50.793Z,7.9
2018-09-30T09:01:52.191Z,7.9
2018-09-30T09:02:53.956Z,7.9
2018-09-30T09:03:55.512Z,7.9
2018-09-30T09:04:56.936Z,7.9
2018-09-30T09:05:58.177Z,7.9
2018-09-30T09:06:59.765Z,7.9
2018-09-30T09:08:01.336Z,7.9
2018-09-30T09:09:02.924Z,7.9
2018-09-30T09:10:04.487Z,7.8
2018-09-30T09:11:06.055Z,7.8
2018-09-30T09:12:07.284Z,7.7
2018-09-30T09:13:08.867Z,7.6
2018-09-30T09:14:10.294Z,7.5
2018-09-30T09:15:11.849Z,7.3
2018-09-30T09:16:13.431Z,7.2
2018-09-30T09:17:14.836Z,7.2
2018-09-30T09:18:16.409Z,7.2
2018-09-30T09:19:17.962Z,7.2
2018-09-30T09:20:19.514Z,7.2
2018-09-30T09:21:21.053Z,7.1
2018-09-30T09:22:22.857Z,7.1
2018-09-30T09:23:24.330Z,7.2
2018-09-30T09:24:25.882Z,7.2
2018-09-30T09:25:27.478Z,7.2
2018-09-30T09:26:28.850Z,7.1
2018-09-30T09:27:30.424Z,7.2
2018-09-30T09:28:31.971Z,7.1
2018-09-30T09:29:33.393Z,7.1
2018-09-30T09:30:34.980Z,7.2
2018-09-30T09:31:36.619Z,7.2
2018-09-30T09:32:37.973Z,7.2
2018-09-30T09:33:39.214Z,7.2
2018-09-30T09:34:40.773Z,7.2
2018-09-30T09:35:42.364Z,7.2
2018-09-30T09:36:43.961Z,7.2
2018-09-30T09:37:45.536Z,7.2
2018-09-30T09:38:47.123Z,7.2
2018-09-30T09:39:48.704Z,7.2
2018-09-30T09:40:50.117Z,7.2
2018-09-30T09:41:51.711Z,7.2
2018-09-30T09:42:53.113Z,7.2
2018-09-30T09:43:54.696Z,7.2
2018-09-30T09:44:56.283Z,7.2
2018-09-30T09:45:57.863Z,7.3
2018-09-30T09:46:59.676Z,7.3
2018-09-30T09:48:01.521Z,7.4
2018-09-30T09:49:03.073Z,7.5
2018-09-30T09:50:04.639Z,7.6
2018-09-30T09:51:06.196Z,7.7
2018-09-30T09:52:07.768Z,7.8
2018-09-30T09:53:09.194Z,7.9
2018-09-30T09:54:10.795Z,7.9
2018-09-30T09:55:12.398Z,7.9
2018-09-30T09:56:13.642Z,7.9
2018-09-30T09:57:15.225Z,7.9
2018-09-30T09:58:16.639Z,7.9
2018-09-30T09:59:19.253Z,7.9
2018-09-30T10:00:20.949Z,7.9
2018-09-30T10:01:22.516Z,7.9
2018-09-30T10:02:23.912Z,7.9
2018-09-30T10:03:25.324Z,7.9
2018-09-30T10:04:26.577Z,7.9
2018-09-30T10:05:27.990Z,7.9
2018-09-30T10:06:29.246Z,7.9
2018-09-30T10:07:30.487Z,7.9
2018-09-30T10:08:31.887Z,7.9
2018-09-30T10:09:33.295Z,7.9
2018-09-30T10:10:34.868Z,7.9
2018-09-30T10:11:36.472Z,7.9
2018-09-30T10:12:37.704Z,7.9
2018-09-30T10:13:39.270Z,7.9
2018-09-30T10:14:40.672Z,7.9
2018-09-30T10:15:42.235Z,7.9
2018-09-30T10:16:43.647Z,7.9
2018-09-30T10:17:45.232Z,7.9
2018-09-30T10:18:46.488Z,7.9
2018-09-30T10:19:48.059Z,7.8
2018-09-30T10:20:49.627Z,7.8
2018-09-30T10:21:51.197Z,7.8
2018-09-30T10:22:52.754Z,7.8
2018-09-30T10:23:54.325Z,7.8
2018-09-30T10:24:55.709Z,7.8
2018-09-30T10:25:57.284Z,7.8
2018-09-30T10:26:58.880Z,7.8
2018-09-30T10:28:00.456Z,7.8
2018-09-30T10:29:01.844Z,7.8
2018-09-30T10:30:03.422Z,7.7
2018-09-30T10:31:05.030Z,7.7
2018-09-30T10:32:06.647Z,7.7
2018-09-30T10:33:08.239Z,7.7
2018-09-30T10:34:09.635Z,7.7
2018-09-30T10:35:11.056Z,7.7
2018-09-30T10:36:12.619Z,7.7
2018-09-30T10:37:14.183Z,7.7
2018-09-30T10:38:15.707Z,7.7
2018-09-30T10:39:18.320Z,7.8
2018-09-30T10:40:20.023Z,7.8
2018-09-30T10:41:21.608Z,7.8
2018-09-30T10:42:23.169Z,7.9
2018-09-30T10:43:24.711Z,7.9
2018-09-30T10:44:26.262Z,7.9
2018-09-30T10:45:27.867Z,7.9
2018-09-30T10:46:29.424Z,7.9
2018-09-30T10:47:30.811Z,7.9
2018-09-30T10:48:33.194Z,7.9
2018-09-30T10:49:34.284Z,7.9
2018-09-30T10:50:35.682Z,7.8
2018-09-30T10:51:36.925Z,7.8
2018-09-30T10:52:38.484Z,7.7
2018-09-30T10:53:40.038Z,7.6
2018-09-30T10:54:41.615Z,7.5
2018-09-30T10:55:42.856Z,7.4
2018-09-30T10:56:44.740Z,7.2
2018-09-30T10:57:45.950Z,7.2
2018-09-30T10:58:47.518Z,7.2
2018-09-30T10:59:48.922Z,7.2
2018-09-30T11:00:50.477Z,7.2
2018-09-30T11:01:51.707Z,7.2
2018-09-30T11:02:53.300Z,7.2
2018-09-30T11:03:54.705Z,7.1
2018-09-30T11:04:56.275Z,7.2
2018-09-30T11:05:57.878Z,7.2
2018-09-30T11:06:59.651Z,7.2
2018-09-30T11:08:00.928Z,7.1
2018-09-30T11:09:02.581Z,7.2
2018-09-30T11:10:04.731Z,7.2
2018-09-30T11:11:06.211Z,7.2
2018-09-30T11:12:07.651Z,7.2
2018-09-30T11:13:09.060Z,7.2
2018-09-30T11:14:10.628Z,7.2
2018-09-30T11:15:12.047Z,7.2
2018-09-30T11:16:14.302Z,7.2
2018-09-30T11:17:15.794Z,7.2
2018-09-30T11:18:17.379Z,7.2
2018-09-30T11:19:18.806Z,7.2
2018-09-30T11:20:20.206Z,7.2
2018-09-30T11:21:21.808Z,7.2
2018-09-30T11:22:23.658Z,7.2
2018-09-30T11:23:24.987Z,7.2
2018-09-30T11:24:26.581Z,7.2
2018-09-30T11:25:28.200Z,7.2
2018-09-30T11:26:29.597Z,7.2
2018-09-30T11:27:30.841Z,7.2
2018-09-30T11:28:32.410Z,7.2
2018-09-30T11:29:34.000Z,7.2
2018-09-30T11:30:35.599Z,7.2
2018-09-30T11:31:37.008Z,7.2
2018-09-30T11:32:38.426Z,7.2
2018-09-30T11:33:40.002Z,7.3
2018-09-30T11:34:41.593Z,7.3
2018-09-30T11:35:42.987Z,7.3
2018-09-30T11:36:44.566Z,7.4
2018-09-30T11:37:46.196Z,7.5
2018-09-30T11:38:47.582Z,7.6
2018-09-30T11:39:49.157Z,7.6
2018-09-30T11:40:50.550Z,7.7
2018-09-30T11:41:51.964Z,7.8
2018-09-30T11:42:53.536Z,7.9
2018-09-30T11:43:54.948Z,7.9
2018-09-30T11:44:56.344Z,7.9
2018-09-30T11:45:57.919Z,7.7
2018-09-30T11:46:59.499Z,7.9
2018-09-30T11:48:00.947Z,7.9
2018-09-30T11:49:02.348Z,7.9
2018-09-30T11:50:03.917Z,7.3
2018-09-30T11:51:05.483Z,7.4
2018-09-30T11:52:06.861Z,7.6
2018-09-30T11:53:08.277Z,7.7
2018-09-30T11:54:10.044Z,7.8
2018-09-30T11:55:11.684Z,7.8
2018-09-30T11:56:13.179Z,7.9
2018-09-30T11:57:14.755Z,7.9
2018-09-30T11:58:16.329Z,7.9
2018-09-30T11:59:17.963Z,7.8
2018-09-30T12:00:19.351Z,7.8
2018-09-30T12:01:21.594Z,7.7
2018-09-30T12:02:23.936Z,7.6
2018-09-30T12:03:25.534Z,7.5
2018-09-30T12:04:27.135Z,7.4
2018-09-30T12:05:28.917Z,7.3
2018-09-30T12:06:30.319Z,7.2
2018-09-30T12:07:31.885Z,7.2
2018-09-30T12:08:33.300Z,7.2
2018-09-30T12:09:34.748Z,7.2
2018-09-30T12:10:36.299Z,7.2
2018-09-30T12:11:37.889Z,7.2
2018-09-30T12:12:39.476Z,7.2
2018-09-30T12:13:41.043Z,7.2
2018-09-30T12:14:42.618Z,7.2
2018-09-30T12:15:44.030Z,7.2
2018-09-30T12:16:45.585Z,7.2
2018-09-30T12:17:47.150Z,7.2
2018-09-30T12:18:49.293Z,7.2
2018-09-30T12:19:50.723Z,7.2
2018-09-30T12:20:52.132Z,7.2
2018-09-30T12:21:53.728Z,7.2
2018-09-30T12:22:55.306Z,7.2
2018-09-30T12:23:56.900Z,7.2
2018-09-30T12:24:58.315Z,7.2
2018-09-30T12:26:00.389Z,7.2
2018-09-30T12:27:01.955Z,7.2
2018-09-30T12:28:03.361Z,7.2
2018-09-30T12:29:04.948Z,7.2
2018-09-30T12:30:06.543Z,7.2
2018-09-30T12:31:08.120Z,7.2
2018-09-30T12:32:09.687Z,7.2
2018-09-30T12:33:11.269Z,7.2
2018-09-30T12:34:12.500Z,7.2
2018-09-30T12:35:14.061Z,7.2
2018-09-30T12:36:15.487Z,7.2
2018-09-30T12:37:16.887Z,7.2
2018-09-30T12:38:18.460Z,7.2
2018-09-30T12:39:20.471Z,7.2
2018-09-30T12:40:21.896Z,7.2
2018-09-30T12:41:23.486Z,7.2
2018-09-30T12:42:25.045Z,7.2
2018-09-30T12:43:26.453Z,7.2
2018-09-30T12:44:27.874Z,7.2
2018-09-30T12:45:29.466Z,7.2
2018-09-30T12:46:31.077Z,7.3
2018-09-30T12:47:32.705Z,7.3
2018-09-30T12:48:34.138Z,7.3
2018-09-30T12:49:35.730Z,7.3
2018-09-30T12:50:37.295Z,7.3
2018-09-30T12:51:38.877Z,7.4
2018-09-30T12:52:40.459Z,7.4
2018-09-30T12:53:42.070Z,7.5
2018-09-30T12:54:43.647Z,7.5
2018-09-30T12:55:45.033Z,7.6
2018-09-30T12:56:46.443Z,7.7
2018-09-30T12:57:48.009Z,7.7
2018-09-30T12:58:49.416Z,7.8
2018-09-30T12:59:50.979Z,7.8
2018-09-30T13:00:52.535Z,7.9
2018-09-30T13:01:54.106Z,7.9
2018-09-30T13:02:55.573Z,7.9
2018-09-30T13:03:56.794Z,7.9
2018-09-30T13:04:58.196Z,7.9
2018-09-30T13:05:59.751Z,7.9
2018-09-30T13:07:01.299Z,7.9
2018-09-30T13:08:02.871Z,7.9
2018-09-30T13:09:04.424Z,7.9
2018-09-30T13:10:06.034Z,7.9
2018-09-30T13:11:07.599Z,7.9
2018-09-30T13:12:09.245Z,7.9
2018-09-30T13:13:10.836Z,7.9
2018-09-30T13:14:12.402Z,7.9
2018-09-30T13:15:13.810Z,7.8
2018-09-30T13:16:15.386Z,7.9
2018-09-30T13:17:16.950Z,7.9
2018-09-30T13:18:18.342Z,7.9
2018-09-30T13:19:19.907Z,7.9
2018-09-30T13:20:21.723Z,7.9
2018-09-30T13:21:23.316Z,7.9
2018-09-30T13:22:24.901Z,7.9
2018-09-30T13:23:26.531Z,7.9
2018-09-30T13:24:28.121Z,7.9
2018-09-30T13:25:29.716Z,7.9
2018-09-30T13:26:31.111Z,7.9
2018-09-30T13:27:32.686Z,7.9
2018-09-30T13:28:34.302Z,7.9
2018-09-30T13:29:35.536Z,7.9
2018-09-30T13:30:37.109Z,7.9
2018-09-30T13:31:38.674Z,7.2
2018-09-30T13:32:40.258Z,7.4
2018-09-30T13:33:42.251Z,7.7
2018-09-30T13:34:43.835Z,7.8
2018-09-30T13:35:45.231Z,7.9
2018-09-30T13:36:46.824Z,7.7
2018-09-30T13:37:48.387Z,7.8
2018-09-30T13:38:49.945Z,7.9
2018-09-30T13:39:51.507Z,7.9
2018-09-30T13:40:54.024Z,7.9
2018-09-30T13:41:55.526Z,7.9
2018-09-30T13:42:56.772Z,7.8
2018-09-30T13:43:58.344Z,7.8
2018-09-30T13:44:59.912Z,7.7
2018-09-30T13:46:01.794Z,7.6
2018-09-30T13:47:03.376Z,7.5
2018-09-30T13:48:04.935Z,7.4
2018-09-30T13:49:06.340Z,7.2
2018-09-30T13:50:07.959Z,7.2
2018-09-30T13:51:09.869Z,7.2
2018-09-30T13:52:11.453Z,7.2
2018-09-30T13:53:12.847Z,7.2
2018-09-30T13:54:14.268Z,7.2
2018-09-30T13:55:15.845Z,7.2
2018-09-30T13:56:17.264Z,7.2
2018-09-30T13:57:18.895Z,7.2
2018-09-30T13:58:21.055Z,7.2
2018-09-30T13:59:22.517Z,7.2
2018-09-30T14:00:23.949Z,7.2
2018-09-30T14:01:25.494Z,7.2
2018-09-30T14:02:27.090Z,7.2
2018-09-30T14:03:28.509Z,7.2
2018-09-30T14:04:30.113Z,7.2
2018-09-30T14:05:31.537Z,7.2
2018-09-30T14:06:32.930Z,7.2
2018-09-30T14:07:34.162Z,7.2